Time;durP1;ratioP1;P1;durP2;ratioP2;P2;SDS_P1;SDS_P2;PMS_P1;PMS_P2;Temp;Humidity;BMP_temperature;BMP_pressure;BME280_temperature;BME280_humidity;BME280_pressure;Samples;Min_cycle;Max_cycle;Signal;HPM_P1;HPM_P2
2023/06/14 00:01:48;;;;;;;5.90;4.30;;;;;;;17.68;59.06;99996.33;106374;1255;65774;-72
2023/06/14 00:04:18;;;;;;;4.50;4.00;;;;;;;17.64;59.15;99998.70;106045;1254;62757;-72
2023/06/14 00:06:46;;;;;;;6.40;4.00;;;;;;;17.62;59.33;100002.61;106335;1252;63702;-72
2023/06/14 00:09:13;;;;;;;6.70;4.00;;;;;;;17.61;59.35;100004.40;106264;1256;61280;-72
2023/06/14 00:11:41;;;;;;;6.90;3.80;;;;;;;17.60;59.31;100006.84;105948;1251;61263;-73
2023/06/14 00:14:08;;;;;;;5.40;3.90;;;;;;;17.59;59.31;100004.48;106017;1251;64654;-72
2023/06/14 00:16:36;;;;;;;6.60;4.00;;;;;;;17.57;59.44;100001.13;106021;1252;61300;-70
2023/06/14 00:19:04;;;;;;;7.50;4.10;;;;;;;17.55;59.55;99999.95;105666;1256;63897;-72
2023/06/14 00:21:31;;;;;;;7.30;4.10;;;;;;;17.52;59.48;99998.14;105641;1251;61246;-72
2023/06/14 00:23:58;;;;;;;5.10;4.20;;;;;;;17.49;59.54;99998.83;105351;1253;61270;-72
2023/06/14 00:26:26;;;;;;;6.10;4.40;;;;;;;17.46;59.62;100002.21;105651;1257;66024;-73
2023/06/14 00:28:54;;;;;;;5.50;4.20;;;;;;;17.45;59.78;100002.35;105757;1255;61363;-72
2023/06/14 00:31:20;;;;;;;7.10;4.40;;;;;;;17.44;59.71;99995.14;105691;1251;64420;-72
2023/06/14 00:33:47;;;;;;;9.00;4.10;;;;;;;17.43;59.85;99991.55;105418;1253;61268;-72
2023/06/14 00:36:13;;;;;;;5.90;4.80;;;;;;;17.40;59.76;99988.43;105517;1256;61155;-71
2023/06/14 00:38:40;;;;;;;6.60;4.60;;;;;;;17.36;59.82;99988.77;105596;1256;66120;-71
2023/06/14 00:41:08;;;;;;;4.80;4.30;;;;;;;17.31;59.96;99989.76;105569;1254;61404;-71
2023/06/14 00:43:35;;;;;;;8.20;4.40;;;;;;;17.28;60.00;99999.64;105588;1254;62865;-71
2023/06/14 00:46:02;;;;;;;4.90;4.40;;;;;;;17.27;59.98;100005.34;105632;1252;61319;-71
2023/06/14 00:48:30;;;;;;;5.30;4.60;;;;;;;17.25;60.13;100000.84;105614;1252;61356;-71
2023/06/14 00:50:57;;;;;;;6.20;4.70;;;;;;;17.26;60.24;99994.40;106825;1250;64705;-71
2023/06/14 00:53:25;;;;;;;5.60;4.00;;;;;;;17.26;60.17;99996.86;105971;1253;61346;-71
2023/06/14 00:55:51;;;;;;;5.90;4.20;;;;;;;17.24;60.15;99997.77;105687;1256;62745;-72
2023/06/14 00:58:19;;;;;;;9.30;4.20;;;;;;;17.20;60.15;99996.68;107723;1252;61254;-72
2023/06/14 01:00:45;;;;;;;6.70;4.60;;;;;;;17.16;60.36;99993.67;105685;1256;61864;-72
2023/06/14 01:03:13;;;;;;;6.60;4.70;;;;;;;17.13;60.26;99989.80;105712;1256;66025;-73
2023/06/14 01:05:40;;;;;;;5.20;4.40;;;;;;;17.12;60.38;99990.06;105818;1253;61422;-72
2023/06/14 01:08:24;;;;;;;7.00;4.90;;;;;;;17.12;60.45;99986.50;105442;1253;63895;-73
2023/06/14 01:11:08;;;;;;;8.10;4.50;;;;;;;17.11;60.38;99987.30;105488;1257;61298;-73
2023/06/14 01:13:36;;;;;;;;;;;;;;;17.09;60.50;99985.25;105713;1253;61444;-72
2023/06/14 01:16:03;;;;;;;6.90;4.90;;;;;;;17.06;60.66;99979.41;105892;1257;65747;-72
2023/06/14 01:18:32;;;;;;;5.00;4.50;;;;;;;17.03;60.79;99979.49;106086;1253;61500;-69
2023/06/14 01:21:05;;;;;;;7.90;4.70;;;;;;;17.03;60.77;99981.86;105665;1253;64000;-72
2023/06/14 01:23:32;;;;;;;6.80;4.90;;;;;;;17.02;60.73;99983.37;105686;1251;61251;-71
2023/06/14 01:26:03;;;;;;;9.40;5.10;;;;;;;17.02;60.78;99983.41;106004;1254;61257;-72
2023/06/14 01:28:31;;;;;;;5.50;4.90;;;;;;;17.02;60.74;99983.24;105684;1251;66396;-72
2023/06/14 01:31:03;;;;;;;6.20;4.80;;;;;;;17.03;60.67;99987.41;105736;1256;62672;-74
2023/06/14 01:33:30;;;;;;;5.60;4.80;;;;;;;17.04;60.75;99988.70;105581;1253;64119;-70
2023/06/14 01:35:58;;;;;;;6.00;4.70;;;;;;;17.03;60.66;99987.50;105657;1253;61209;-73
2023/06/14 01:38:26;;;;;;;5.50;4.90;;;;;;;17.03;60.72;99988.44;105515;1253;61260;-72
2023/06/14 01:40:53;;;;;;;6.30;4.60;;;;;;;17.02;60.83;99985.67;105794;1251;66067;-72
2023/06/14 01:43:20;;;;;;;7.70;4.90;;;;;;;17.02;60.82;99985.84;105503;1254;61197;-71
2023/06/14 01:45:48;;;;;;;8.00;4.60;;;;;;;17.01;60.81;99980.14;105533;1253;63955;-71
2023/06/14 01:48:15;;;;;;;6.10;4.50;;;;;;;16.98;60.77;99983.07;106107;1257;61200;-71
2023/06/14 01:50:42;;;;;;;5.50;4.10;;;;;;;16.95;60.79;99986.49;105336;1250;61097;-71
2023/06/14 01:53:09;;;;;;;7.30;4.60;;;;;;;16.90;60.80;99983.65;106379;1254;64776;-72
2023/06/14 01:55:37;;;;;;;6.80;4.70;;;;;;;16.85;60.80;99987.77;109383;1251;59020;-71
2023/06/14 01:58:06;;;;;;;4.90;4.20;;;;;;;16.81;60.88;99991.66;109360;1251;64051;-71
2023/06/14 02:00:33;;;;;;;7.00;4.60;;;;;;;16.80;60.91;99987.33;105666;1250;61286;-71
2023/06/14 02:02:59;;;;;;;5.90;4.50;;;;;;;16.80;61.04;99983.16;106993;1253;59885;-71
2023/06/14 02:05:26;;;;;;;7.00;4.40;;;;;;;16.82;61.12;99980.41;105454;1256;67719;-71
2023/06/14 02:07:53;;;;;;;9.10;5.10;;;;;;;16.85;61.19;99981.60;106179;1251;61349;-71
2023/06/14 02:10:20;;;;;;;6.70;4.30;;;;;;;16.86;61.34;99985.69;105808;1258;62704;-72
2023/06/14 02:12:47;;;;;;;6.70;4.30;;;;;;;16.89;61.43;99989.63;105790;1253;61337;-72
2023/06/14 02:15:18;;;;;;;5.50;4.50;;;;;;;16.93;61.29;99987.84;105490;1255;61170;-71
2023/06/14 02:17:49;;;;;;;5.90;4.60;;;;;;;16.96;61.37;99986.59;106025;1251;64982;-71
2023/06/14 02:20:16;;;;;;;8.00;4.50;;;;;;;16.98;61.49;99986.98;105830;1253;61346;-71
2023/06/14 02:22:45;;;;;;;8.30;4.20;;;;;;;17.01;61.44;99990.25;105998;1251;64091;-71
2023/06/14 02:25:12;;;;;;;5.30;4.20;;;;;;;17.03;61.22;99990.61;105798;1253;61316;-72
2023/06/14 02:27:40;;;;;;;8.20;4.30;;;;;;;17.04;61.30;99998.30;105626;1253;61301;-71
2023/06/14 02:30:08;;;;;;;7.70;4.40;;;;;;;17.05;61.37;99997.09;106372;1256;65743;-72
2023/06/14 02:32:35;;;;;;;6.60;4.10;;;;;;;17.05;61.33;99995.49;105584;1253;61310;-72
2023/06/14 02:35:02;;;;;;;5.50;4.60;;;;;;;17.03;61.34;99997.51;105637;1255;63787;-71
2023/06/14 02:37:29;;;;;;;6.50;4.60;;;;;;;17.02;61.35;99996.31;106032;1259;61244;-72
2023/06/14 02:39:56;;;;;;;5.90;4.80;;;;;;;17.03;61.53;99993.58;105422;1253;61327;-72
2023/06/14 02:42:23;;;;;;;8.80;5.00;;;;;;;17.04;61.41;99992.70;105627;1256;66000;-72
2023/06/14 02:44:51;;;;;;;8.90;4.90;;;;;;;17.06;61.44;99989.85;105445;1251;61933;-71
2023/06/14 02:47:18;;;;;;;6.10;4.60;;;;;;;17.10;61.51;99990.61;105819;1253;64128;-71
2023/06/14 02:49:48;;;;;;;5.20;4.60;;;;;;;17.13;61.50;99995.96;107082;1253;61429;-72
2023/06/14 02:52:15;;;;;;;8.70;4.70;;;;;;;17.15;61.39;99996.81;105650;1253;61304;-71
2023/06/14 02:54:42;;;;;;;6.60;4.70;;;;;;;17.17;61.40;99997.31;105448;1260;66079;-71
2023/06/14 02:57:11;;;;;;;8.80;5.00;;;;;;;17.19;61.51;100000.45;106009;1253;60299;-72
2023/06/14 02:59:38;;;;;;;7.00;4.80;;;;;;;17.22;61.38;100008.71;106130;1253;63733;-71
2023/06/14 03:02:05;;;;;;;8.80;4.60;;;;;;;17.24;61.45;100012.92;106010;1253;61219;-72
2023/06/14 03:07:19;;;;;;;5.50;4.90;;;;;;;17.28;61.39;100008.16;102347;1294;600017;-71
2023/06/14 03:09:49;;;;;;;8.60;4.90;;;;;;;17.30;61.36;100008.91;104483;1277;59314;-71
2023/06/14 03:12:17;;;;;;;6.00;5.00;;;;;;;17.32;61.34;100008.27;104379;1269;59340;-71
2023/06/14 03:14:46;;;;;;;7.20;4.70;;;;;;;17.35;61.30;100008.51;105306;1267;62064;-72
2023/06/14 03:17:17;;;;;;;6.80;5.30;;;;;;;17.36;61.27;100010.77;106018;1266;58788;-71
2023/06/14 03:19:45;;;;;;;9.60;4.90;;;;;;;17.39;61.30;100012.08;104877;1266;190157;-71
2023/06/14 03:30:04;;;;;;;10.90;5.00;;;;;;;17.55;61.36;100010.14;102535;1295;601047;-71
2023/06/14 03:40:27;;;;;;;6.50;4.90;;;;;;;17.78;61.31;100008.73;102176;1295;616237;-71
2023/06/14 03:43:01;;;;;;;6.10;5.20;;;;;;;17.85;61.23;100010.75;104811;1267;59788;-73
2023/06/14 03:45:28;;;;;;;7.60;5.40;;;;;;;17.90;61.20;100011.72;104843;1269;59960;-72
2023/06/14 03:47:56;;;;;;;5.90;5.00;;;;;;;17.95;61.04;100010.61;104887;1270;63413;-69
2023/06/14 03:50:24;;;;;;;7.90;5.50;;;;;;;18.00;60.97;100009.71;104853;1271;59213;-72
2023/06/14 03:52:52;;;;;;;8.60;5.20;;;;;;;18.05;60.83;100010.88;104440;1264;460145;-70
2023/06/14 03:55:19;;;;;;;7.20;5.30;;;;;;;18.10;60.70;100010.30;105348;1261;59148;-70
2023/06/14 03:57:49;;;;;;;10.00;5.20;;;;;;;18.13;60.83;100009.27;105196;1258;59328;-74
2023/06/14 04:00:17;;;;;;;8.10;5.70;;;;;;;18.16;60.71;100007.69;105689;1261;63543;-72
2023/06/14 04:02:44;;;;;;;8.10;5.00;;;;;;;18.20;60.60;100010.27;105350;1264;59232;-71
2023/06/14 04:05:11;;;;;;;7.50;4.90;;;;;;;18.24;60.47;100010.22;105641;1260;63909;-70
2023/06/14 04:07:45;;;;;;;8.90;5.40;;;;;;;18.28;60.38;100009.59;105506;1257;61035;-71
2023/06/14 04:10:13;;;;;;;10.10;5.50;;;;;;;18.31;60.47;100007.80;105505;1258;59695;-71
2023/06/14 04:12:40;;;;;;;9.10;5.30;;;;;;;18.37;60.39;100011.28;105247;1261;64282;-71
2023/06/14 04:15:10;;;;;;;7.70;5.20;;;;;;;18.42;60.16;100010.50;105399;1258;59616;-71
2023/06/14 04:17:47;;;;;;;6.50;5.40;;;;;;;18.46;60.12;100011.06;105455;1260;63901;-72
2023/06/14 04:20:16;;;;;;;7.50;5.50;;;;;;;18.49;60.12;100008.14;105638;1257;59539;-70
2023/06/14 04:22:43;;;;;;;7.60;5.50;;;;;;;18.54;60.01;100003.70;105980;1263;59840;-73
2023/06/14 04:25:11;;;;;;;6.00;5.10;;;;;;;18.58;59.89;100002.11;106263;1257;64282;-71
2023/06/14 04:27:41;;;;;;;7.40;5.00;;;;;;;18.62;59.95;100000.20;105120;1260;60250;-71
2023/06/14 04:30:10;;;;;;;6.80;4.90;;;;;;;18.67;59.78;100002.15;105410;1258;65822;-72
2023/06/14 04:32:42;;;;;;;8.70;5.10;;;;;;;18.72;59.76;100005.61;105509;1258;59709;-71
2023/06/14 04:35:11;;;;;;;8.70;5.30;;;;;;;18.78;59.65;100010.14;105802;1258;59685;-71
2023/06/14 04:37:43;;;;;;;7.80;5.20;;;;;;;18.84;59.55;100014.02;105406;1257;63163;-72
2023/06/14 04:40:11;;;;;;;6.20;5.20;;;;;;;18.90;59.53;100011.54;105432;1253;59645;-72
2023/06/14 04:42:40;;;;;;;7.80;5.20;;;;;;;18.96;59.33;100013.12;105755;1254;62669;-73
2023/06/14 04:45:09;;;;;;;7.10;4.90;;;;;;;19.02;59.23;100013.61;105569;1254;59596;-71
2023/06/14 04:47:38;;;;;;;6.40;4.90;;;;;;;19.08;59.14;100015.04;105327;1253;59766;-71
2023/06/14 04:50:07;;;;;;;7.40;5.10;;;;;;;19.14;59.05;100018.59;107862;1252;64236;-71
2023/06/14 04:52:35;;;;;;;7.80;4.80;;;;;;;19.23;58.93;100017.42;108050;1254;59469;-71
2023/06/14 04:55:05;;;;;;;5.90;4.90;;;;;;;19.29;58.77;100016.73;105521;1255;64102;-71
2023/06/14 04:57:33;;;;;;;8.30;4.60;;;;;;;19.35;58.50;100015.48;105330;1254;59663;-71
2023/06/14 05:00:04;;;;;;;8.70;5.40;;;;;;;19.40;58.28;100019.01;105874;1253;59611;-71
2023/06/14 05:02:32;;;;;;;9.60;5.30;;;;;;;19.43;58.18;100022.67;105390;1254;62877;-71
2023/06/14 05:05:01;;;;;;;6.90;5.50;;;;;;;19.48;58.13;100018.89;105471;1254;59665;-71
2023/06/14 05:07:28;;;;;;;10.70;5.30;;;;;;;19.50;57.91;100020.19;106927;1253;64013;-72
2023/06/14 05:09:56;;;;;;;5.80;4.70;;;;;;;19.50;57.81;100022.86;105568;1254;59721;-71
2023/06/14 05:12:23;;;;;;;7.70;5.50;;;;;;;19.50;57.79;100025.63;105439;1253;59499;-71
2023/06/14 05:14:50;;;;;;;6.80;5.10;;;;;;;19.49;57.68;100031.37;105596;1254;64317;-72
2023/06/14 05:17:20;;;;;;;7.10;5.50;;;;;;;19.49;57.70;100037.27;105460;1256;59727;-71
2023/06/14 05:19:47;;;;;;;7.20;5.40;;;;;;;19.50;57.69;100039.23;105750;1253;65826;-70
2023/06/14 05:22:14;;;;;;;8.20;5.70;;;;;;;19.50;57.84;100038.09;105540;1253;59712;-72
2023/06/14 05:24:41;;;;;;;8.40;5.50;;;;;;;19.51;57.73;100035.66;105809;1253;59669;-71
2023/06/14 05:27:08;;;;;;;10.10;5.50;;;;;;;19.51;57.80;100029.24;105390;1256;64196;-71
2023/06/14 05:29:36;;;;;;;9.50;5.70;;;;;;;19.54;57.93;100030.58;105393;1257;59498;-71
2023/06/14 05:32:03;;;;;;;9.40;5.80;;;;;;;19.58;58.05;100032.17;105856;1254;64021;-72
2023/06/14 05:34:30;;;;;;;8.50;5.20;;;;;;;19.62;58.07;100030.63;105576;1253;59555;-72
2023/06/14 05:36:57;;;;;;;11.80;5.90;;;;;;;19.66;58.05;100027.61;105351;1254;59721;-72
2023/06/14 05:39:24;;;;;;;10.00;5.40;;;;;;;19.70;57.95;100026.89;105347;1257;64150;-71
2023/06/14 05:41:51;;;;;;;8.80;5.40;;;;;;;19.75;57.92;100025.73;105561;1254;59524;-71
2023/06/14 05:44:18;;;;;;;8.00;5.30;;;;;;;19.81;57.93;100024.48;105262;1259;64132;-70
2023/06/14 05:46:44;;;;;;;6.70;5.10;;;;;;;19.87;58.05;100025.13;105323;1253;59774;-72
2023/06/14 05:49:12;;;;;;;10.00;5.30;;;;;;;19.94;57.88;100030.22;105589;1253;59667;-71
2023/06/14 05:51:38;;;;;;;7.40;5.00;;;;;;;20.02;57.65;100029.97;105683;1256;64206;-72
2023/06/14 05:54:05;;;;;;;8.40;5.30;;;;;;;20.09;57.52;100028.82;105383;1254;59647;-72
2023/06/14 05:56:33;;;;;;;8.30;5.10;;;;;;;20.17;57.44;100026.48;105867;1254;63995;-71
2023/06/14 05:58:59;;;;;;;7.80;5.30;;;;;;;20.20;57.16;100024.05;105648;1257;59989;-71
2023/06/14 06:01:26;;;;;;;7.80;4.90;;;;;;;20.23;57.17;100023.50;107593;1254;59558;-72
2023/06/14 06:03:53;;;;;;;7.00;4.80;;;;;;;20.35;57.26;100024.34;105964;1253;64228;-72
2023/06/14 06:06:20;;;;;;;6.30;4.80;;;;;;;20.45;57.09;100027.67;105494;1257;59488;-72
2023/06/14 06:08:47;;;;;;;7.40;4.80;;;;;;;20.55;57.15;100028.58;105833;1257;64018;-72
2023/06/14 06:11:14;;;;;;;6.80;5.10;;;;;;;20.66;56.99;100028.61;106018;1254;59728;-71
2023/06/14 06:13:41;;;;;;;7.20;5.20;;;;;;;20.76;56.80;100027.39;106483;1253;59747;-73
2023/06/14 06:16:08;;;;;;;9.60;5.20;;;;;;;20.85;56.60;100027.84;105739;1261;64397;-74
2023/06/14 06:18:36;;;;;;;9.60;5.20;;;;;;;20.92;56.36;100029.24;105764;1257;59564;-73
2023/06/14 06:21:04;;;;;;;7.60;4.70;;;;;;;21.00;56.35;100030.73;105793;1257;62636;-73
2023/06/14 06:23:33;;;;;;;11.00;4.80;;;;;;;21.09;56.07;100032.69;105764;1254;59714;-75
2023/06/14 06:25:59;;;;;;;7.10;4.60;;;;;;;21.18;55.82;100034.64;105789;1254;59811;-75
2023/06/14 06:28:26;;;;;;;9.10;5.00;;;;;;;21.24;55.58;100035.70;106261;1253;64294;-74
2023/06/14 06:30:53;;;;;;;5.80;4.10;;;;;;;21.29;55.48;100035.02;105987;1253;59644;-74
2023/06/14 06:33:20;;;;;;;7.80;4.30;;;;;;;21.38;55.12;100035.95;106067;1257;62545;-74
2023/06/14 06:35:46;;;;;;;10.00;4.40;;;;;;;21.48;54.61;100033.64;105980;1259;59531;-73
2023/06/14 06:38:13;;;;;;;6.30;4.60;;;;;;;21.58;54.50;100035.09;106111;1253;59648;-74
2023/06/14 06:40:39;;;;;;;8.20;4.00;;;;;;;21.73;54.36;100027.80;106285;1258;64215;-72
2023/06/14 06:43:06;;;;;;;6.20;4.70;;;;;;;21.88;54.21;100025.31;106573;1254;59770;-71
2023/06/14 06:45:40;;;;;;;12.60;3.90;;;;;;;21.99;54.12;100022.20;106196;1253;62932;-72
2023/06/14 06:48:10;;;;;;;18.90;5.00;;;;;;;22.10;53.99;100018.40;106255;1253;59720;-71
2023/06/14 06:50:37;;;;;;;10.60;4.40;;;;;;;22.22;53.89;100016.96;106377;1253;59614;-72
2023/06/14 06:53:05;;;;;;;17.80;4.60;;;;;;;22.35;53.74;100013.66;106493;1258;64425;-71
2023/06/14 06:55:32;;;;;;;17.70;5.40;;;;;;;22.48;53.73;100016.80;106459;1257;59685;-71
2023/06/14 06:58:00;;;;;;;9.00;4.40;;;;;;;22.62;53.18;100018.69;106228;1253;64350;-76
2023/06/14 07:00:26;;;;;;;7.90;4.40;;;;;;;22.74;52.84;100015.32;106170;1256;59664;-72
2023/06/14 07:02:56;;;;;;;10.70;4.90;;;;;;;22.83;52.45;100017.92;105922;1254;59616;-73
2023/06/14 07:05:23;;;;;;;8.30;5.00;;;;;;;22.90;51.80;100015.32;106026;1258;63061;-71
2023/06/14 07:07:53;;;;;;;8.00;4.50;;;;;;;22.93;51.65;100013.49;106044;1257;59502;-72
2023/06/14 07:10:24;;;;;;;9.90;4.20;;;;;;;23.01;51.83;100018.27;105835;1259;64044;-72
2023/06/14 07:12:51;;;;;;;9.90;4.00;;;;;;;23.12;51.70;100020.15;105969;1256;59618;-71
2023/06/14 07:15:17;;;;;;;15.00;4.30;;;;;;;23.22;51.51;100017.09;105743;1254;59771;-74
2023/06/14 07:17:45;;;;;;;8.20;4.40;;;;;;;23.33;51.39;100015.44;105906;1253;64579;-77
2023/06/14 07:20:13;;;;;;;6.90;4.30;;;;;;;23.39;51.00;100015.37;105811;1253;59686;-72
2023/06/14 07:22:41;;;;;;;7.90;4.70;;;;;;;23.44;50.93;100013.14;105895;1253;63970;-74
2023/06/14 07:25:09;;;;;;;7.00;4.20;;;;;;;23.49;50.72;100008.19;105780;1255;59781;-74
2023/06/14 07:27:36;;;;;;;6.40;4.00;;;;;;;23.56;50.68;100010.03;105798;1254;59654;-71
2023/06/14 07:30:02;;;;;;;7.40;4.20;;;;;;;23.65;50.74;100011.80;106105;1253;59747;-71
2023/06/14 07:32:30;;;;;;;6.80;4.60;;;;;;;23.73;50.68;100011.73;106149;1253;59558;-70
2023/06/14 07:34:57;;;;;;;8.40;4.10;;;;;;;23.81;50.47;100008.88;106348;1253;64765;-74
2023/06/14 07:37:24;;;;;;;8.10;4.20;;;;;;;23.84;50.40;100008.90;105893;1256;59580;-74
2023/06/14 07:39:51;;;;;;;5.20;4.20;;;;;;;23.88;50.28;100010.42;106447;1253;59542;-75
2023/06/14 07:42:17;;;;;;;9.10;4.30;;;;;;;23.94;50.24;100008.59;106329;1254;64163;-73
2023/06/14 07:44:44;;;;;;;7.90;3.70;;;;;;;24.05;50.19;100008.17;106059;1253;59614;-75
2023/06/14 07:47:12;;;;;;;7.90;3.90;;;;;;;24.20;50.24;100006.36;105820;1254;64005;-77
2023/06/14 07:49:39;;;;;;;4.40;4.00;;;;;;;24.37;50.10;100004.80;106379;1256;60329;-77
2023/06/14 07:52:06;;;;;;;7.50;4.00;;;;;;;24.52;49.83;100004.80;106133;1253;60415;-82
2023/06/14 07:54:32;;;;;;;6.70;4.00;;;;;;;24.62;49.53;100005.29;106010;1257;65225;-82
2023/06/14 07:57:00;;;;;;;8.90;4.00;;;;;;;24.75;49.47;100005.03;106695;1254;60527;-81
2023/06/14 07:59:27;;;;;;;4.90;3.50;;;;;;;24.89;49.42;100006.05;106328;1257;62910;-81
2023/06/14 08:01:54;;;;;;;7.30;3.70;;;;;;;25.03;49.04;100005.13;105910;1253;60492;-73
2023/06/14 08:04:21;;;;;;;5.80;3.80;;;;;;;25.12;48.46;100004.61;105952;1253;60332;-73
2023/06/14 08:06:48;;;;;;;9.30;3.70;;;;;;;25.15;48.29;99999.76;105724;1257;64874;-75
2023/06/14 08:09:16;;;;;;;6.90;3.30;;;;;;;25.19;48.31;99999.05;105771;1254;61021;-75
2023/06/14 08:11:43;;;;;;;12.90;3.80;;;;;;;25.29;48.09;99994.27;105712;1253;63891;-71
2023/06/14 08:14:10;;;;;;;10.60;3.60;;;;;;;25.39;47.87;99989.52;105750;1253;60871;-75
2023/06/14 08:16:37;;;;;;;6.50;3.40;;;;;;;25.50;48.02;99990.31;105688;1259;60386;-78
2023/06/14 08:19:04;;;;;;;6.50;3.80;;;;;;;25.61;47.80;99994.41;105793;1255;65207;-76
2023/06/14 08:21:33;;;;;;;6.90;3.40;;;;;;;25.71;47.38;99991.77;105819;1254;60444;-75
2023/06/14 08:24:00;;;;;;;11.00;4.30;;;;;;;25.79;46.95;99992.38;105803;1257;64126;-74
2023/06/14 08:26:29;;;;;;;8.40;3.90;;;;;;;25.82;46.60;99991.91;105898;1253;60521;-75
2023/06/14 08:28:56;;;;;;;6.80;3.60;;;;;;;25.83;46.66;99991.02;105618;1254;60496;-76
2023/06/14 08:31:25;;;;;;;6.50;3.10;;;;;;;25.91;46.66;99988.90;105916;1253;65524;-76
2023/06/14 08:33:52;;;;;;;5.60;3.40;;;;;;;26.01;46.39;99984.13;106087;1254;60422;-76
2023/06/14 08:36:19;;;;;;;8.30;3.80;;;;;;;26.06;46.07;99978.89;105727;1257;64037;-72
2023/06/14 08:38:46;;;;;;;5.80;3.30;;;;;;;26.10;46.10;99978.95;105748;1253;60345;-75
2023/06/14 08:41:15;;;;;;;8.30;3.40;;;;;;;26.18;46.04;99983.56;105791;1253;60438;-78
2023/06/14 08:43:42;;;;;;;8.60;3.70;;;;;;;26.25;45.78;99984.55;106115;1255;65242;-77
2023/06/14 08:46:10;;;;;;;7.70;3.30;;;;;;;26.28;45.37;99983.50;105936;1253;60480;-74
2023/06/14 08:48:37;;;;;;;5.50;3.80;;;;;;;26.35;45.45;99980.59;106031;1253;63786;-78
2023/06/14 08:51:04;;;;;;;5.70;3.40;;;;;;;26.49;45.62;99980.49;105578;1257;60471;-81
2023/06/14 08:53:41;;;;;;;5.10;3.30;;;;;;;26.63;45.43;99980.62;105693;1253;60458;-80
2023/06/14 08:56:13;;;;;;;5.80;3.30;;;;;;;26.81;45.17;99980.14;105753;1257;64886;-76
2023/06/14 08:58:44;;;;;;;5.30;3.30;;;;;;;26.99;44.53;99972.89;105840;1256;60403;-71
2023/06/14 09:01:16;;;;;;;9.10;2.90;;;;;;;27.08;43.88;99967.73;106046;1253;63946;-70
2023/06/14 09:03:44;;;;;;;6.90;3.20;;;;;;;27.16;44.00;99968.11;105713;1254;60429;-77
2023/06/14 09:06:13;;;;;;;7.30;3.20;;;;;;;27.27;44.06;99967.84;105780;1252;60420;-80
2023/06/14 09:08:47;;;;;;;9.60;3.10;;;;;;;27.43;43.88;99966.40;105847;1253;65253;-81
2023/06/14 09:11:15;;;;;;;9.90;3.30;;;;;;;27.57;43.45;99967.13;105812;1257;60371;-79
2023/06/14 09:13:42;;;;;;;6.80;3.10;;;;;;;27.72;43.41;99960.35;106006;1258;63867;-76
2023/06/14 09:16:09;;;;;;;11.60;3.00;;;;;;;27.86;43.12;99958.45;105807;1253;60415;-79
2023/06/14 09:18:47;;;;;;;8.00;3.10;;;;;;;28.02;42.89;99962.02;105584;1253;60537;-80
2023/06/14 09:21:15;;;;;;;8.40;2.90;;;;;;;28.14;41.77;99957.76;106098;1257;65013;-76
2023/06/14 09:23:43;;;;;;;7.40;3.00;;;;;;;28.23;41.83;99958.33;105846;1254;60880;-78
2023/06/14 09:26:14;;;;;;;10.50;4.10;;;;;;;28.33;41.61;99956.24;105830;1254;62841;-76
2023/06/14 09:28:42;;;;;;;11.20;3.80;;;;;;;28.42;41.07;99957.80;105923;1253;60461;-76
2023/06/14 09:31:14;;;;;;;4.80;3.10;;;;;;;28.47;40.65;99959.89;105627;1253;60346;-79
2023/06/14 09:33:48;;;;;;;6.40;2.90;;;;;;;28.54;40.60;99961.51;105512;1254;65137;-86
2023/06/14 09:36:22;;;;;;;6.40;3.00;;;;;;;28.64;40.58;99959.31;106088;1253;60435;-78
2023/06/14 09:38:56;;;;;;;6.30;2.80;;;;;;;28.75;40.39;99955.72;105914;1255;64048;-75
2023/06/14 09:41:34;;;;;;;9.90;3.70;;;;;;;28.88;40.04;99958.57;105880;1254;60559;-75
2023/06/14 09:44:06;;;;;;;9.50;3.20;;;;;;;29.03;39.93;99953.45;105867;1253;60414;-74
2023/06/14 09:46:38;;;;;;;21.80;3.70;;;;;;;29.22;39.83;99953.55;105753;1257;66696;-73
2023/06/14 09:49:05;;;;;;;13.00;3.10;;;;;;;29.33;39.15;99958.86;105731;1253;60501;-73
2023/06/14 09:51:32;;;;;;;8.50;2.60;;;;;;;29.41;38.83;99955.40;105785;1253;63801;-73
2023/06/14 09:54:01;;;;;;;7.70;2.70;;;;;;;29.44;38.43;99958.77;105739;1253;60531;-74
2023/06/14 09:56:32;;;;;;;9.80;2.60;;;;;;;29.39;38.16;99957.19;105744;1253;60486;-74
2023/06/14 09:58:59;;;;;;;7.50;2.50;;;;;;;29.40;38.72;99960.07;105860;1258;65092;-74
2023/06/14 10:01:32;;;;;;;5.80;2.70;;;;;;;29.44;38.45;99960.67;105825;1254;60406;-74
2023/06/14 10:04:05;;;;;;;4.60;2.60;;;;;;;29.46;38.42;99960.25;105773;1253;64020;-74
2023/06/14 10:06:41;;;;;;;3.80;2.50;;;;;;;29.40;38.67;99958.39;105875;1257;60340;-74
2023/06/14 10:09:09;;;;;;;4.20;2.30;;;;;;;29.37;38.50;99960.76;105808;1257;60373;-73
2023/06/14 10:11:43;;;;;;;25.50;3.10;;;;;;;29.41;38.46;99960.14;105847;1253;65179;-74
2023/06/14 10:14:10;;;;;;;6.40;2.80;;;;;;;29.55;38.79;99957.92;105678;1254;60432;-75
2023/06/14 10:16:42;;;;;;;6.40;2.40;;;;;;;29.67;37.98;99958.52;105770;1253;63976;-75
2023/06/14 10:19:23;;;;;;;4.80;2.50;;;;;;;29.70;37.69;99953.77;105754;1254;60508;-75
2023/06/14 10:21:57;;;;;;;3.00;2.30;;;;;;;29.75;37.56;99950.88;105697;1253;60536;-75
2023/06/14 10:24:43;;;;;;;6.20;2.40;;;;;;;29.85;37.53;99947.33;105631;1259;65236;-78
2023/06/14 10:27:13;;;;;;;7.80;2.60;;;;;;;30.04;37.52;99944.06;105738;1253;60529;-72
2023/06/14 10:29:52;;;;;;;6.00;2.50;;;;;;;30.26;37.57;99939.34;105991;1253;63958;-71
2023/06/14 10:32:20;;;;;;;11.40;2.40;;;;;;;30.51;36.93;99935.63;105688;1254;60410;-71
2023/06/14 10:35:13;;;;;;;8.30;2.50;;;;;;;30.71;36.52;99936.16;105610;1253;60527;-70
2023/06/14 10:37:40;;;;;;;5.30;2.10;;;;;;;30.94;36.18;99934.03;105685;1257;65161;-72
2023/06/14 10:40:08;;;;;;;4.30;2.30;;;;;;;31.17;35.90;99931.23;105732;1256;60481;-72
2023/06/14 10:42:35;;;;;;;5.00;2.40;;;;;;;31.36;35.74;99927.05;105643;1259;63714;-74
2023/06/14 10:45:03;;;;;;;5.50;2.20;;;;;;;31.51;35.25;99927.51;105596;1257;60461;-74
2023/06/14 10:47:35;;;;;;;10.20;2.90;;;;;;;31.49;34.15;99932.36;105792;1253;60442;-75
2023/06/14 10:50:02;;;;;;;7.80;2.50;;;;;;;31.45;34.64;99935.57;105655;1253;64081;-75
2023/06/14 10:52:29;;;;;;;3.70;2.30;;;;;;;31.52;34.60;99932.27;105782;1255;60454;-76
2023/06/14 10:55:04;;;;;;;9.30;2.70;;;;;;;31.61;34.38;99933.14;105703;1253;65621;-73
2023/06/14 10:57:55;;;;;;;5.50;2.20;;;;;;;31.69;34.57;99934.23;105762;1256;60482;-75
2023/06/14 11:00:24;;;;;;;7.60;2.50;;;;;;;31.74;33.80;99929.44;105514;1256;60361;-76
2023/06/14 11:03:16;;;;;;;6.40;2.40;;;;;;;31.70;33.79;99929.17;105804;1253;63955;-74
2023/06/14 11:05:47;;;;;;;9.60;2.50;;;;;;;31.75;34.44;99927.88;105737;1253;60464;-72
2023/06/14 11:08:16;;;;;;;7.50;2.50;;;;;;;31.89;34.25;99926.80;105761;1256;63913;-72
2023/06/14 11:10:45;;;;;;;7.00;2.50;;;;;;;32.03;33.90;99925.11;105701;1258;60416;-72
2023/06/14 11:13:12;;;;;;;5.00;2.40;;;;;;;32.13;33.75;99926.73;105787;1253;60438;-73
2023/06/14 11:15:44;;;;;;;13.00;2.80;;;;;;;32.24;33.35;99928.58;105717;1257;66881;-69
2023/06/14 11:18:11;;;;;;;7.30;2.50;;;;;;;32.35;32.97;99929.35;105801;1257;60407;-71
2023/06/14 11:20:39;;;;;;;5.00;2.50;;;;;;;32.37;32.31;99929.20;105727;1253;63887;-71
2023/06/14 11:23:06;;;;;;;3.80;2.30;;;;;;;32.32;32.55;99926.68;105982;1254;60539;-71
2023/06/14 11:25:33;;;;;;;4.60;2.30;;;;;;;32.30;32.37;99924.86;105933;1252;59343;-72
2023/06/14 11:28:00;;;;;;;6.60;2.20;;;;;;;32.24;32.67;99923.23;105816;1256;65023;-76
2023/06/14 11:30:26;;;;;;;10.20;2.60;;;;;;;32.24;32.42;99919.23;105820;1254;60475;-71
2023/06/14 11:32:57;;;;;;;11.00;2.50;;;;;;;32.27;32.74;99919.57;105674;1254;64120;-71
2023/06/14 11:35:25;;;;;;;5.30;2.30;;;;;;;32.35;32.63;99919.90;106331;1252;60527;-73
2023/06/14 11:37:58;;;;;;;7.50;2.20;;;;;;;32.41;32.83;99920.27;106150;1252;60683;-73
2023/06/14 11:40:25;;;;;;;7.50;2.40;;;;;;;32.45;32.77;99919.02;105891;1253;65395;-77
2023/06/14 11:43:00;;;;;;;6.90;2.90;;;;;;;32.51;32.63;99917.67;105887;1253;60537;-77
2023/06/14 11:45:27;;;;;;;7.60;2.50;;;;;;;32.57;32.56;99920.50;105890;1256;63184;-77
2023/06/14 11:47:58;;;;;;;11.70;2.30;;;;;;;32.64;32.49;99924.04;106172;1251;60347;-76